createdAt,value
2018-06-03T00:00:09.734Z,29.67
2018-06-03T00:02:37.930Z,30.33
2018-06-03T00:05:06.117Z,29.77
2018-06-03T00:07:34.321Z,31.93
2018-06-03T00:10:02.537Z,33.47
2018-06-03T00:12:30.735Z,30.47
2018-06-03T00:14:58.894Z,32.63
2018-06-03T00:17:27.117Z,33.07
2018-06-03T00:19:55.284Z,34.27
2018-06-03T00:22:28.213Z,32.73
2018-06-03T00:24:56.430Z,32.80
2018-06-03T00:27:24.703Z,33.30
2018-06-03T00:29:52.874Z,32.57
2018-06-03T00:32:21.083Z,34.20
2018-06-03T00:34:49.245Z,34.13
2018-06-03T00:37:17.463Z,34.97
2018-06-03T00:39:45.670Z,33.53
2018-06-03T00:42:13.910Z,37.33
2018-06-03T00:44:42.086Z,35.73
2018-06-03T00:47:10.268Z,35.27
2018-06-03T00:49:38.483Z,35.77
2018-06-03T00:52:06.676Z,36.43
2018-06-03T00:54:34.883Z,36.53
2018-06-03T00:57:09.839Z,38.93
2018-06-03T00:59:38.574Z,38.97
2018-06-03T01:02:06.755Z,37.13
2018-06-03T01:04:34.978Z,38.17
2018-06-03T01:07:03.140Z,38.67
2018-06-03T01:09:31.382Z,40.10
2018-06-03T01:11:59.558Z,41.33
2018-06-03T01:14:27.825Z,39.37
2018-06-03T01:16:56.007Z,40.73
2018-06-03T01:19:24.251Z,41.90
2018-06-03T01:21:52.439Z,45.10
2018-06-03T01:24:20.638Z,44.57
2018-06-03T01:26:48.803Z,43.27
2018-06-03T01:29:16.984Z,43.27
2018-06-03T01:31:45.209Z,43.13
2018-06-03T01:34:13.389Z,44.33
2018-06-03T01:36:41.613Z,44.93
2018-06-03T01:39:09.811Z,46.73
2018-06-03T01:41:38.042Z,43.67
2018-06-03T01:44:06.222Z,44.53
2018-06-03T01:46:34.420Z,43.23
2018-06-03T01:49:02.600Z,43.10
2018-06-03T01:51:30.813Z,42.20
2018-06-03T01:53:59.000Z,43.03
2018-06-03T01:56:27.204Z,45.67
2018-06-03T01:58:55.427Z,48.83
2018-06-03T02:01:23.638Z,43.20
2018-06-03T02:03:51.821Z,45.40
2018-06-03T02:06:20.000Z,49.43
2018-06-03T02:08:48.221Z,46.47
2018-06-03T02:11:16.433Z,39.80
2018-06-03T02:13:44.620Z,42.13
2018-06-03T02:16:12.823Z,42.60
2018-06-03T02:18:41.019Z,42.50
2018-06-03T02:21:09.184Z,42.10
2018-06-03T02:23:37.390Z,42.23
2018-06-03T02:26:05.595Z,41.07
2018-06-03T02:28:33.808Z,39.60
2018-06-03T02:31:02.003Z,41.00
2018-06-03T02:33:30.181Z,45.73
2018-06-03T02:35:58.337Z,40.10
2018-06-03T02:38:26.522Z,40.50
2018-06-03T02:40:54.702Z,41.50
2018-06-03T02:43:22.918Z,41.63
2018-06-03T02:45:51.095Z,40.57
2018-06-03T02:48:34.112Z,45.10
2018-06-03T02:51:05.300Z,38.57
2018-06-03T02:53:33.497Z,37.70
2018-06-03T02:56:01.670Z,41.83
2018-06-03T02:58:29.868Z,40.03
2018-06-03T03:00:58.085Z,38.40
2018-06-03T03:03:26.285Z,38.10
2018-06-03T03:05:54.449Z,36.93
2018-06-03T03:08:22.604Z,39.13
2018-06-03T03:10:50.801Z,39.33
2018-06-03T03:13:18.995Z,41.40
2018-06-03T03:15:47.246Z,38.23
2018-06-03T03:18:15.462Z,38.83
2018-06-03T03:20:43.653Z,38.07
2018-06-03T03:23:11.855Z,38.50
2018-06-03T03:25:40.036Z,36.07
2018-06-03T03:28:08.237Z,36.53
2018-06-03T03:30:36.407Z,39.50
2018-06-03T03:33:04.597Z,38.63
2018-06-03T03:35:32.792Z,36.33
2018-06-03T03:38:00.997Z,38.47
2018-06-03T03:40:29.174Z,36.90
2018-06-03T03:42:57.384Z,41.07
2018-06-03T03:45:25.547Z,41.70
2018-06-03T03:47:53.767Z,41.83
2018-06-03T03:50:21.938Z,37.20
2018-06-03T03:52:50.147Z,36.20
2018-06-03T03:55:18.347Z,42.43
2018-06-03T03:57:46.560Z,40.60
2018-06-03T04:00:14.758Z,38.20
2018-06-03T04:02:42.947Z,41.77
2018-06-03T04:05:11.199Z,40.17
2018-06-03T04:07:39.458Z,38.73
2018-06-03T04:10:07.624Z,38.53
2018-06-03T04:12:35.791Z,40.10
2018-06-03T04:15:03.986Z,36.83
2018-06-03T04:17:32.157Z,42.90
2018-06-03T04:20:00.356Z,42.60
2018-06-03T04:22:28.526Z,42.60
2018-06-03T04:24:56.723Z,41.33
2018-06-03T04:27:24.905Z,44.50
2018-06-03T04:29:53.124Z,40.77
2018-06-03T04:32:21.327Z,40.87
2018-06-03T04:34:49.511Z,42.67
2018-06-03T04:37:17.691Z,44.20
2018-06-03T04:39:45.879Z,42.83
2018-06-03T04:42:14.089Z,39.20
2018-06-03T04:44:42.253Z,42.13
2018-06-03T04:47:10.449Z,45.17
2018-06-03T04:49:38.635Z,44.27
2018-06-03T04:52:06.843Z,46.47
2018-06-03T04:54:35.044Z,51.30
2018-06-03T04:57:03.260Z,52.00
2018-06-03T04:59:31.436Z,51.90
2018-06-03T05:01:59.643Z,51.97
2018-06-03T05:04:27.804Z,52.17
2018-06-03T05:06:56.018Z,53.17
2018-06-03T05:09:24.201Z,50.30
2018-06-03T05:11:52.412Z,49.83
2018-06-03T05:14:20.618Z,39.50
2018-06-03T05:16:48.792Z,41.70
2018-06-03T05:19:16.997Z,41.93
2018-06-03T05:21:45.154Z,43.00
2018-06-03T05:24:13.379Z,38.23
2018-06-03T05:26:41.538Z,42.27
2018-06-03T05:29:09.738Z,38.00
2018-06-03T05:31:37.923Z,39.97
2018-06-03T05:34:06.095Z,39.87
2018-06-03T05:36:34.307Z,44.57
2018-06-03T05:39:02.479Z,42.70
2018-06-03T05:41:30.687Z,41.03
2018-06-03T05:43:58.890Z,41.53
2018-06-03T05:46:27.095Z,42.43
2018-06-03T05:48:55.276Z,44.87
2018-06-03T05:51:23.456Z,45.27
2018-06-03T05:53:51.643Z,46.60
2018-06-03T05:56:19.832Z,43.37
2018-06-03T05:58:48.021Z,45.47
2018-06-03T06:01:16.196Z,42.73
2018-06-03T06:03:44.410Z,44.83
2018-06-03T06:06:12.605Z,43.80
2018-06-03T06:08:40.825Z,47.50
2018-06-03T06:11:09.000Z,50.40
2018-06-03T06:13:37.182Z,49.17
2018-06-03T06:16:05.387Z,48.23
2018-06-03T06:18:33.566Z,49.83
2018-06-03T06:21:01.774Z,51.07
2018-06-03T06:23:29.968Z,53.00
2018-06-03T06:25:58.137Z,55.97
2018-06-03T06:28:26.318Z,53.87
2018-06-03T06:30:54.588Z,53.97
2018-06-03T06:33:22.781Z,50.17
2018-06-03T06:35:50.981Z,49.37
2018-06-03T06:38:19.145Z,49.03
2018-06-03T06:41:01.316Z,49.00
2018-06-03T06:43:31.736Z,45.90
2018-06-03T06:45:59.944Z,46.33
2018-06-03T06:48:28.104Z,48.80
2018-06-03T06:50:56.309Z,51.20
2018-06-03T06:53:24.525Z,51.93
2018-06-03T06:55:52.698Z,46.00
2018-06-03T06:58:20.904Z,49.17
2018-06-03T07:00:49.138Z,48.07
2018-06-03T07:03:17.369Z,49.53
2018-06-03T07:05:45.936Z,47.83
2018-06-03T07:08:14.539Z,49.67
2018-06-03T07:10:45.103Z,52.80
2018-06-03T07:13:14.419Z,49.30
2018-06-03T07:15:43.091Z,49.67
2018-06-03T07:18:11.772Z,50.73
2018-06-03T07:20:40.447Z,47.50
2018-06-03T07:23:09.868Z,48.37
2018-06-03T07:25:38.410Z,49.03
2018-06-03T07:28:07.126Z,46.73
2018-06-03T07:30:36.124Z,46.07
2018-06-03T07:33:04.914Z,49.87
2018-06-03T07:35:33.388Z,42.90
2018-06-03T07:38:01.993Z,43.63
2018-06-03T07:40:31.555Z,45.03
2018-06-03T07:43:00.147Z,41.90
2018-06-03T07:45:28.615Z,42.43
2018-06-03T07:47:57.237Z,39.13
2018-06-03T07:50:25.942Z,44.93
2018-06-03T07:52:54.490Z,42.83
2018-06-03T07:55:23.421Z,43.53
2018-06-03T07:57:51.768Z,46.93
2018-06-03T08:00:20.501Z,42.97
2018-06-03T08:02:49.142Z,42.57
2018-06-03T08:05:17.828Z,41.37
2018-06-03T08:07:46.363Z,43.23
2018-06-03T08:10:15.647Z,39.10
2018-06-03T08:12:44.356Z,40.10
2018-06-03T08:15:13.084Z,42.43
2018-06-03T08:17:41.650Z,40.53
2018-06-03T08:20:10.165Z,41.53
2018-06-03T08:22:38.735Z,41.57
2018-06-03T08:25:07.312Z,43.87
2018-06-03T08:27:36.385Z,40.50
2018-06-03T08:30:04.983Z,43.10
2018-06-03T08:32:33.572Z,43.73
2018-06-03T08:35:02.322Z,43.40
2018-06-03T08:37:30.836Z,46.07
2018-06-03T08:39:59.426Z,47.87
2018-06-03T08:42:28.047Z,46.27
2018-06-03T08:45:28.662Z,45.70
2018-06-03T08:47:59.559Z,46.70
2018-06-03T08:50:29.724Z,47.63
2018-06-03T08:52:59.968Z,45.50
2018-06-03T08:55:29.728Z,43.37
2018-06-03T08:57:59.184Z,44.30
2018-06-03T09:00:28.919Z,41.63
2018-06-03T09:02:59.433Z,44.33
2018-06-03T09:05:29.182Z,45.53
2018-06-03T09:07:58.291Z,46.20
2018-06-03T09:10:27.744Z,45.07
2018-06-03T09:12:56.829Z,38.23
2018-06-03T09:15:26.067Z,35.07
2018-06-03T09:17:55.177Z,32.43
2018-06-03T09:20:24.280Z,37.10
2018-06-03T09:22:53.426Z,35.87
2018-06-03T09:25:28.849Z,38.13
2018-06-03T09:27:57.978Z,36.93
2018-06-03T09:30:33.723Z,34.80
2018-06-03T09:33:02.903Z,34.40
2018-06-03T09:35:32.020Z,38.80
2018-06-03T09:38:01.117Z,38.67
2018-06-03T09:40:30.287Z,37.00
2018-06-03T09:42:59.406Z,33.97
2018-06-03T09:45:29.132Z,34.00
2018-06-03T09:47:59.157Z,31.00
2018-06-03T09:50:28.866Z,31.63
2018-06-03T09:53:11.558Z,35.03
2018-06-03T09:55:57.236Z,33.43
2018-06-03T09:58:35.462Z,31.57
2018-06-03T10:01:09.438Z,33.50
2018-06-03T10:03:39.164Z,31.47
2018-06-03T10:06:08.392Z,31.23
2018-06-03T10:08:37.539Z,31.63
2018-06-03T10:11:07.009Z,28.80
2018-06-03T10:13:36.164Z,28.43
2018-06-03T10:16:12.110Z,29.47
2018-06-03T10:18:41.154Z,29.10
2018-06-03T10:21:10.283Z,27.17
2018-06-03T10:23:39.432Z,27.23
2018-06-03T10:26:09.039Z,29.10
2018-06-03T10:28:38.183Z,36.77
2018-06-03T10:31:07.332Z,37.60
2018-06-03T10:33:43.205Z,37.90
2018-06-03T10:36:12.307Z,37.37
2018-06-03T10:38:41.657Z,39.37
2018-06-03T10:41:10.780Z,42.73
2018-06-03T10:43:40.026Z,36.73
2018-06-03T10:46:09.352Z,45.07
2018-06-03T10:48:38.474Z,40.50
2018-06-03T10:51:07.760Z,41.60
2018-06-03T10:53:36.898Z,39.83
2018-06-03T10:56:06.062Z,40.00
2018-06-03T10:58:35.181Z,35.57
2018-06-03T11:01:04.283Z,37.83
2018-06-03T11:03:33.373Z,35.80
2018-06-03T11:06:02.519Z,36.03
2018-06-03T11:08:31.653Z,36.90
2018-06-03T11:11:00.791Z,36.97
2018-06-03T11:13:29.883Z,35.67
2018-06-03T11:15:59.051Z,32.80
2018-06-03T11:18:28.157Z,34.23
2018-06-03T11:20:57.310Z,34.97
2018-06-03T11:23:26.417Z,32.23
2018-06-03T11:25:55.556Z,30.93
2018-06-03T11:28:24.682Z,30.40
2018-06-03T11:30:53.784Z,29.60
2018-06-03T11:33:22.938Z,29.80
2018-06-03T11:35:52.053Z,28.27
2018-06-03T11:38:21.263Z,30.97
2018-06-03T11:40:50.411Z,32.80
2018-06-03T11:43:19.496Z,31.10
2018-06-03T11:45:48.808Z,30.90
2018-06-03T11:48:17.967Z,28.10
2018-06-03T11:50:53.452Z,28.53
2018-06-03T11:53:22.592Z,30.77
2018-06-03T11:55:51.730Z,30.27
2018-06-03T11:58:41.042Z,31.43
2018-06-03T12:01:10.482Z,31.63
2018-06-03T12:03:39.592Z,34.13
2018-06-03T12:06:08.732Z,31.97
2018-06-03T12:08:37.891Z,31.63
2018-06-03T12:11:06.977Z,34.27
2018-06-03T12:13:36.775Z,31.23
2018-06-03T12:16:06.045Z,33.90
2018-06-03T12:18:35.187Z,32.60
2018-06-03T12:21:04.297Z,35.28
2018-06-03T12:23:33.425Z,35.40
2018-06-03T12:26:02.568Z,36.23
2018-06-03T12:28:31.687Z,35.35
2018-06-03T12:31:00.868Z,34.98
2018-06-03T12:33:29.960Z,34.75
2018-06-03T12:35:59.089Z,34.27
2018-06-03T12:38:28.211Z,34.60
2018-06-03T12:40:57.301Z,35.08
2018-06-03T12:43:26.439Z,32.03
2018-06-03T12:45:55.525Z,33.80
2018-06-03T12:48:24.628Z,32.28
2018-06-03T12:50:53.774Z,31.45
2018-06-03T12:53:22.882Z,33.90
2018-06-03T12:55:52.083Z,34.67
2018-06-03T12:58:21.193Z,34.35
2018-06-03T13:00:50.291Z,31.93
2018-06-03T13:03:19.358Z,31.52
2018-06-03T13:05:48.454Z,36.00
2018-06-03T13:08:17.677Z,33.13
2018-06-03T13:10:46.853Z,33.98
2018-06-03T13:13:15.958Z,33.42
2018-06-03T13:15:45.126Z,33.83
2018-06-03T13:18:14.229Z,34.25
2018-06-03T13:20:43.421Z,35.40
2018-06-03T13:23:12.540Z,35.55
2018-06-03T13:25:41.670Z,34.18
2018-06-03T13:28:10.814Z,39.27
2018-06-03T13:30:39.906Z,37.50
2018-06-03T13:33:09.043Z,35.83
2018-06-03T13:35:38.154Z,36.13
2018-06-03T13:38:07.303Z,37.08
2018-06-03T13:40:36.443Z,36.33
2018-06-03T13:43:05.551Z,35.80
2018-06-03T13:45:34.647Z,35.45
2018-06-03T13:48:03.843Z,37.15
2018-06-03T13:50:33.016Z,33.42
2018-06-03T13:53:02.236Z,35.50
2018-06-03T13:55:31.344Z,34.92
2018-06-03T13:58:00.498Z,34.58
2018-06-03T14:00:29.605Z,35.73
2018-06-03T14:02:58.692Z,34.38
2018-06-03T14:05:27.971Z,35.17
2018-06-03T14:07:57.117Z,36.63
2018-06-03T14:10:26.233Z,34.53
2018-06-03T14:12:55.303Z,32.53
2018-06-03T14:15:24.455Z,31.05
2018-06-03T14:17:53.595Z,33.30
2018-06-03T14:20:22.726Z,33.35
2018-06-03T14:22:51.825Z,31.80
2018-06-03T14:25:21.005Z,31.70
2018-06-03T14:27:50.177Z,30.05
2018-06-03T14:30:19.325Z,28.83
2018-06-03T14:32:48.420Z,29.05
2018-06-03T14:35:17.566Z,29.90
2018-06-03T14:37:47.689Z,29.18
2018-06-03T14:40:16.803Z,31.42
2018-06-03T14:42:45.875Z,29.40
2018-06-03T14:45:15.000Z,28.85
2018-06-03T14:47:44.097Z,27.60
2018-06-03T14:50:13.242Z,28.20
2018-06-03T14:52:42.340Z,27.42
2018-06-03T14:55:11.496Z,27.73
2018-06-03T14:57:40.608Z,28.10
2018-06-03T15:00:09.675Z,29.52
2018-06-03T15:02:38.782Z,28.38
2018-06-03T15:05:07.988Z,27.15
2018-06-03T15:07:37.134Z,28.47
2018-06-03T15:10:06.501Z,26.15
2018-06-03T15:12:35.600Z,29.92
2018-06-03T15:15:04.826Z,28.65
2018-06-03T15:17:34.387Z,26.30
2018-06-03T15:20:03.580Z,27.37
2018-06-03T15:22:32.710Z,25.97
2018-06-03T15:25:01.840Z,28.20
2018-06-03T15:27:30.957Z,25.68
2018-06-03T15:30:00.051Z,29.00
2018-06-03T15:32:29.183Z,27.37
2018-06-03T15:34:58.280Z,27.02
2018-06-03T15:37:27.420Z,27.20
2018-06-03T15:39:56.503Z,26.93
2018-06-03T15:42:25.649Z,27.48
2018-06-03T15:44:54.799Z,28.02
2018-06-03T15:47:24.489Z,29.25
2018-06-03T15:49:53.720Z,32.28
2018-06-03T15:52:22.884Z,29.63
2018-06-03T15:54:52.355Z,30.15
2018-06-03T15:57:21.815Z,30.20
2018-06-03T15:59:51.452Z,29.00
2018-06-03T16:02:20.855Z,30.10
2018-06-03T16:04:50.649Z,31.05
2018-06-03T16:07:20.075Z,29.35
2018-06-03T16:09:49.587Z,29.18
2018-06-03T16:12:19.048Z,26.90
2018-06-03T16:14:48.485Z,27.52
2018-06-03T16:17:17.932Z,25.35
2018-06-03T16:19:47.391Z,26.50
2018-06-03T16:22:16.893Z,24.00
2018-06-03T16:24:46.390Z,25.88
2018-06-03T16:27:15.808Z,25.00
2018-06-03T16:29:45.345Z,23.45
2018-06-03T16:32:14.853Z,23.47
2018-06-03T16:34:44.323Z,23.83
2018-06-03T16:37:13.827Z,23.10
2018-06-03T16:39:42.977Z,23.65
2018-06-03T16:42:14.598Z,23.25
2018-06-03T16:44:43.765Z,23.02
2018-06-03T16:47:12.864Z,22.50
2018-06-03T16:49:42.011Z,20.57
2018-06-03T16:52:11.125Z,19.92
2018-06-03T16:54:40.268Z,20.17
2018-06-03T16:57:09.422Z,19.67
2018-06-03T16:59:38.611Z,20.15
2018-06-03T17:02:07.766Z,19.75
2018-06-03T17:04:36.904Z,20.12
2018-06-03T17:07:06.243Z,19.32
2018-06-03T17:09:36.732Z,19.77
2018-06-03T17:12:05.862Z,20.77
2018-06-03T17:14:35.083Z,22.13
2018-06-03T17:17:04.335Z,22.87
2018-06-03T17:19:33.497Z,24.27
2018-06-03T17:22:07.374Z,22.83
2018-06-03T17:24:36.512Z,21.90
2018-06-03T17:27:06.986Z,22.42
2018-06-03T17:29:36.115Z,21.10
2018-06-03T17:32:05.266Z,19.80
2018-06-03T17:34:34.394Z,17.80
2018-06-03T17:37:03.698Z,18.53
2018-06-03T17:39:32.811Z,19.47
2018-06-03T17:42:01.977Z,18.30
2018-06-03T17:44:31.087Z,17.60
2018-06-03T17:47:00.222Z,17.53
2018-06-03T17:49:29.377Z,17.67
2018-06-03T17:51:58.553Z,16.77
2018-06-03T17:54:28.336Z,16.00
2018-06-03T17:56:57.470Z,19.97
2018-06-03T17:59:26.588Z,16.30
2018-06-03T18:01:55.758Z,17.17
2018-06-03T18:04:24.910Z,18.60
2018-06-03T18:06:54.025Z,17.60
2018-06-03T18:09:24.934Z,17.77
2018-06-03T18:11:54.023Z,13.73
2018-06-03T18:14:23.163Z,15.73
2018-06-03T18:16:52.536Z,16.03
2018-06-03T18:19:21.650Z,13.50
2018-06-03T18:21:50.766Z,14.93
2018-06-03T18:24:19.897Z,14.00
2018-06-03T18:26:49.038Z,15.30
2018-06-03T18:29:18.152Z,14.40
2018-06-03T18:31:47.243Z,13.90
2018-06-03T18:34:16.379Z,15.53
2018-06-03T18:36:45.469Z,14.87
2018-06-03T18:39:14.595Z,13.73
2018-06-03T18:41:43.755Z,15.80
2018-06-03T18:44:12.883Z,15.97
2018-06-03T18:46:41.982Z,15.10
2018-06-03T18:49:11.143Z,15.43
2018-06-03T18:51:40.267Z,15.30
2018-06-03T18:54:09.432Z,14.37
2018-06-03T18:56:38.538Z,14.73
2018-06-03T18:59:07.630Z,14.63
2018-06-03T19:01:36.807Z,15.20
2018-06-03T19:04:06.025Z,15.27
2018-06-03T19:06:35.126Z,15.97
2018-06-03T19:09:06.763Z,15.13
2018-06-03T19:11:36.054Z,15.03
2018-06-03T19:14:05.231Z,21.33
2018-06-03T19:16:34.330Z,14.73
2018-06-03T19:19:03.522Z,16.60
2018-06-03T19:21:32.638Z,16.53
2018-06-03T19:24:01.769Z,14.77
2018-06-03T19:26:30.899Z,16.83
2018-06-03T19:29:00.036Z,14.73
2018-06-03T19:31:29.132Z,15.70
2018-06-03T19:33:58.285Z,14.03
2018-06-03T19:36:27.391Z,13.90
2018-06-03T19:38:56.518Z,15.07
2018-06-03T19:41:26.687Z,14.17
2018-06-03T19:43:55.796Z,13.97
2018-06-03T19:46:24.994Z,13.63
2018-06-03T19:48:54.169Z,13.80
2018-06-03T19:51:23.614Z,16.97
2018-06-03T19:53:52.733Z,13.73
2018-06-03T19:56:21.877Z,14.10
2018-06-03T19:58:51.677Z,14.33
2018-06-03T20:01:20.759Z,14.00
2018-06-03T20:03:49.929Z,14.47
2018-06-03T20:06:19.106Z,13.07
2018-06-03T20:08:48.261Z,13.73
2018-06-03T20:11:17.543Z,14.33
2018-06-03T20:13:46.688Z,14.97
2018-06-03T20:16:15.834Z,13.20
2018-06-03T20:18:45.054Z,14.53
2018-06-03T20:21:14.203Z,15.33
2018-06-03T20:23:43.304Z,14.80
2018-06-03T20:26:12.441Z,14.20
2018-06-03T20:28:41.569Z,15.13
2018-06-03T20:31:10.693Z,14.10
2018-06-03T20:33:39.831Z,14.40
2018-06-03T20:36:09.003Z,15.17
2018-06-03T20:38:38.139Z,16.00
2018-06-03T20:41:07.329Z,15.80
2018-06-03T20:43:36.459Z,15.17
2018-06-03T20:46:05.696Z,15.37
2018-06-03T20:48:34.784Z,14.73
2018-06-03T20:51:03.929Z,15.60
2018-06-03T20:53:33.340Z,14.70
2018-06-03T20:56:02.494Z,16.73
2018-06-03T20:58:31.609Z,15.13
2018-06-03T21:01:00.795Z,12.80
2018-06-03T21:03:29.914Z,13.90
2018-06-03T21:05:59.075Z,15.10
2018-06-03T21:08:28.302Z,16.17
2018-06-03T21:10:57.395Z,16.67
2018-06-03T21:13:26.522Z,13.93
2018-06-03T21:15:55.633Z,15.27
2018-06-03T21:18:24.797Z,13.70
2018-06-03T21:20:53.914Z,13.73
2018-06-03T21:23:23.073Z,13.73
2018-06-03T21:25:52.267Z,13.50
2018-06-03T21:28:21.381Z,13.90
2018-06-03T21:30:50.634Z,15.50
2018-06-03T21:33:19.796Z,13.50
2018-06-03T21:35:48.914Z,13.90
2018-06-03T21:38:18.038Z,14.13
2018-06-03T21:40:47.255Z,15.37
2018-06-03T21:43:16.566Z,16.00
2018-06-03T21:45:45.651Z,16.77
2018-06-03T21:48:14.776Z,16.87
2018-06-03T21:50:44.212Z,17.80
2018-06-03T21:53:13.377Z,17.10
2018-06-03T21:55:42.798Z,17.40
2018-06-03T21:58:11.916Z,17.67
2018-06-03T22:00:41.345Z,16.70
2018-06-03T22:03:10.485Z,18.73
2018-06-03T22:05:39.647Z,15.40
2018-06-03T22:08:08.837Z,14.17
2018-06-03T22:10:38.000Z,17.63
2018-06-03T22:13:07.137Z,14.70
2018-06-03T22:15:36.305Z,15.53
2018-06-03T22:18:05.808Z,14.63
2018-06-03T22:20:35.622Z,16.27
2018-06-03T22:23:04.836Z,16.87
2018-06-03T22:25:34.041Z,15.20
2018-06-03T22:28:03.146Z,15.47
2018-06-03T22:30:33.541Z,16.20
2018-06-03T22:33:02.711Z,15.17
2018-06-03T22:35:31.858Z,15.63
2018-06-03T22:38:01.149Z,15.40
2018-06-03T22:40:30.291Z,15.43
2018-06-03T22:42:59.466Z,17.70
2018-06-03T22:45:28.542Z,15.70
2018-06-03T22:47:57.672Z,16.77
2018-06-03T22:50:26.799Z,15.10
2018-06-03T22:52:55.956Z,17.07
2018-06-03T22:55:25.136Z,14.73
2018-06-03T22:57:55.101Z,15.30
2018-06-03T23:00:29.963Z,15.53
2018-06-03T23:03:04.377Z,15.00
2018-06-03T23:05:33.642Z,15.20
2018-06-03T23:08:02.824Z,15.50
2018-06-03T23:10:31.937Z,17.00
2018-06-03T23:13:01.125Z,14.67
2018-06-03T23:15:30.291Z,15.57
2018-06-03T23:17:59.573Z,14.87
2018-06-03T23:20:28.671Z,15.20
2018-06-03T23:22:57.926Z,15.13
2018-06-03T23:25:27.084Z,16.17
2018-06-03T23:27:56.470Z,15.40
2018-06-03T23:30:25.651Z,16.50
2018-06-03T23:32:55.024Z,15.60
2018-06-03T23:35:24.170Z,17.20
2018-06-03T23:37:53.345Z,16.17
2018-06-03T23:40:22.421Z,16.40
2018-06-03T23:42:51.574Z,15.87
2018-06-03T23:45:20.656Z,16.07
2018-06-03T23:47:49.765Z,16.90
2018-06-03T23:50:18.889Z,17.03
2018-06-03T23:52:48.000Z,17.23
2018-06-03T23:55:17.135Z,19.30
2018-06-03T23:57:46.245Z,16.77
